Ercan, Cyprus

6:36 AM EEST on August 29, 2014 (GMT +0300)
Ercan | Change Station
CLOSE
Current Station
Airport
Location: Ercan,
Elevation: 299 ft
Nearby Weather Stations

Elev 299 ft 35.15 °N, 33.50 °E | Updated 16 minutes ago

Clear
Clear
75 °F
Feels Like 75 °F
N
5
Wind Variable Wind from WSW

Today
High -- | Low -- °F
--% Chance of Precip.
Yesterday
High -- | Low -- °F
Precip. -- in
6:16 AM 7:17 PM
Waxing Crescent, 11% visible
Pressure 29.74 in
Visibility -9999.0 miles
Clouds
Dew Point 70 °F
Humidity 83%
Rainfall 0.00 in
Snow Depth Not available.
UV Not available.
Pollen Not available.
Air Quality Not available.
Flu Activity Not available.
METAR LCEN 290320Z 24004KT CAVOK 24/21 Q1007 NOSIG RMK RWY11 27003KT

More Conditions Fewer Conditions

Pressure 29.74 in
Visibility -9999.0 miles
Clouds
Dew Point 70 °F
Humidity 83%
Rainfall 0.00 in
Snow Depth Not available.
UV Not available.
Pollen Not available.
Air Quality Not available.
Flu Activity Not available.
METAR LCEN 290320Z 24004KT CAVOK 24/21 Q1007 NOSIG RMK RWY11 27003KT

More Conditions Fewer Conditions

10-Day Weather Forecast

Almanac

Astronomy

Aug. 29, 2014 Rise Set
Actual Time 6:16 AM EEST 7:17 PM EEST
Civil Twilight 5:50 AM EEST 7:43 PM EEST
Nautical Twilight 5:19 AM EEST 8:14 PM EEST
Astronomical Twilight 4:47 AM EEST 8:46 PM EEST
Moon 9:36 AM EEST 9:13 PM EEST
Length of Visible Light 13h 53m
Length of Day
13h 01m
Tomorrow will be 2m 5s shorter.
Waxing Crescent, 11% of the Moon is Illuminated
Aug 28
Waxing Crescent
Sep 2
First Quarter
Sep 8
Full
Sep 15
Last Quarter
Sep 24
New

Yesterday's Extremes

Country Highs Country Lows

Community

WunderPhotos

Upload Photos

1,748,175 photos uploaded!

Nearby

Snow Depth

Not available.

Earthquake Activity

City Distance Mag. Time & Date
No recent earthquake activity has been reported nearby.
Minimum magnitude displayed is 2.5.

Coastal Water Temperatures

Place Temperature
No Stations Reporting

Nearby Weather Stations